createdAt,value
2022-11-24T00:02:31.549Z,3.63
2022-11-24T00:05:01.728Z,3.28
2022-11-24T00:07:31.903Z,4.05
2022-11-24T00:10:01.989Z,4.13
2022-11-24T00:12:34.976Z,4.28
2022-11-24T00:15:05.224Z,3.35
2022-11-24T00:17:35.314Z,4.40
2022-11-24T00:20:05.877Z,4.70
2022-11-24T00:22:36.041Z,4.28
2022-11-24T00:25:06.664Z,4.88
2022-11-24T00:27:39.294Z,4.65
2022-11-24T00:30:10.692Z,4.88
2022-11-24T00:32:40.878Z,5.00
2022-11-24T00:35:10.991Z,5.78
2022-11-24T00:37:41.028Z,5.10
2022-11-24T00:40:13.902Z,4.97
2022-11-24T00:42:46.603Z,4.88
2022-11-24T00:45:16.796Z,4.78
2022-11-24T00:47:46.776Z,5.30
2022-11-24T00:50:17.033Z,4.80
2022-11-24T00:52:47.000Z,6.07
2022-11-24T00:55:17.062Z,6.10
2022-11-24T00:57:49.761Z,6.20
2022-11-24T01:00:21.026Z,6.10
2022-11-24T01:02:51.204Z,6.35
2022-11-24T01:05:21.502Z,6.45
2022-11-24T01:07:51.652Z,6.90
2022-11-24T01:10:22.571Z,7.90
2022-11-24T01:12:55.256Z,7.50
2022-11-24T01:15:25.476Z,7.72
2022-11-24T01:17:56.217Z,8.43
2022-11-24T01:20:26.823Z,7.70
2022-11-24T01:22:56.874Z,8.38
2022-11-24T01:25:27.024Z,8.45
2022-11-24T01:27:59.653Z,7.80
2022-11-24T01:30:29.796Z,8.15
2022-11-24T01:32:59.851Z,9.30
2022-11-24T01:35:29.913Z,8.43
2022-11-24T01:37:59.974Z,8.25
2022-11-24T01:40:34.449Z,8.75
2022-11-24T01:43:18.880Z,8.95
2022-11-24T01:45:51.134Z,9.80
2022-11-24T01:48:27.890Z,8.77
2022-11-24T01:51:06.625Z,9.15
2022-11-24T01:53:36.917Z,9.80
2022-11-24T01:56:08.440Z,10.13
2022-11-24T01:58:42.928Z,8.20
2022-11-24T02:01:13.823Z,8.60
2022-11-24T02:03:46.546Z,9.00
2022-11-24T02:06:19.632Z,9.50
2022-11-24T02:08:54.897Z,9.57
2022-11-24T02:11:27.065Z,9.65
2022-11-24T02:14:00.566Z,9.00
2022-11-24T02:16:30.798Z,9.32
2022-11-24T02:19:01.026Z,9.38
2022-11-24T02:21:31.399Z,9.38
2022-11-24T02:24:08.543Z,9.48
2022-11-24T02:26:45.823Z,8.40
2022-11-24T02:29:17.130Z,9.57
2022-11-24T02:31:50.473Z,9.80
2022-11-24T02:34:20.636Z,9.45
2022-11-24T02:36:50.697Z,8.70
2022-11-24T02:39:21.399Z,10.07
2022-11-24T02:41:58.838Z,8.75
2022-11-24T02:44:33.572Z,9.38
2022-11-24T02:47:08.279Z,9.65
2022-11-24T02:49:39.152Z,9.27
2022-11-24T02:52:09.523Z,9.65
2022-11-24T02:54:39.628Z,9.45
2022-11-24T02:57:12.983Z,8.93
2022-11-24T02:59:43.340Z,9.15
2022-11-24T03:02:13.330Z,9.45
2022-11-24T03:04:44.751Z,9.77
2022-11-24T03:07:14.949Z,10.45
2022-11-24T03:09:45.810Z,9.85
2022-11-24T03:12:18.551Z,10.07
2022-11-24T03:14:48.636Z,9.13
2022-11-24T03:17:18.658Z,9.45
2022-11-24T03:19:48.712Z,10.27
2022-11-24T03:22:18.733Z,9.82
2022-11-24T03:24:48.909Z,9.68
2022-11-24T03:27:21.812Z,9.57
2022-11-24T03:29:51.822Z,11.15
2022-11-24T03:32:21.954Z,10.23
2022-11-24T03:34:52.070Z,9.52
2022-11-24T03:37:22.700Z,9.23
2022-11-24T03:39:52.840Z,9.73
2022-11-24T03:42:25.671Z,10.70
2022-11-24T03:44:55.829Z,11.40
2022-11-24T03:47:25.801Z,11.15
2022-11-24T03:49:55.897Z,10.48
2022-11-24T03:52:26.784Z,10.77
2022-11-24T03:54:56.986Z,11.68
2022-11-24T03:57:29.637Z,13.95
2022-11-24T03:59:59.708Z,17.38
2022-11-24T04:02:29.800Z,14.75
2022-11-24T04:04:59.864Z,14.40
2022-11-24T04:07:30.026Z,14.73
2022-11-24T04:10:00.072Z,15.02
2022-11-24T04:12:45.011Z,13.32
2022-11-24T04:15:18.395Z,12.57
2022-11-24T04:17:49.465Z,11.88
2022-11-24T04:20:20.571Z,10.57
2022-11-24T04:22:52.251Z,10.15
2022-11-24T04:25:22.551Z,10.35
2022-11-24T04:27:57.759Z,10.23
2022-11-24T04:30:29.413Z,9.77
2022-11-24T04:32:59.943Z,9.60
2022-11-24T04:35:29.993Z,9.65
2022-11-24T04:38:00.096Z,9.90
2022-11-24T04:40:30.254Z,10.73
2022-11-24T04:43:02.932Z,11.10
2022-11-24T04:45:32.961Z,11.10
2022-11-24T04:48:02.936Z,11.13
2022-11-24T04:50:33.123Z,10.38
2022-11-24T04:53:03.216Z,11.20
2022-11-24T04:55:33.307Z,10.98
2022-11-24T04:58:06.365Z,10.70
2022-11-24T05:00:36.417Z,11.07
2022-11-24T05:03:06.704Z,10.75
2022-11-24T05:05:36.814Z,11.10
2022-11-24T05:08:07.840Z,12.73
2022-11-24T05:10:38.012Z,12.30
2022-11-24T05:13:14.221Z,11.68
2022-11-24T05:15:45.041Z,13.35
2022-11-24T05:18:16.826Z,13.93
2022-11-24T05:20:47.583Z,13.35
2022-11-24T05:23:18.246Z,12.52
2022-11-24T05:25:48.356Z,11.18
2022-11-24T05:28:21.910Z,12.30
2022-11-24T05:30:52.029Z,12.27
2022-11-24T05:33:23.210Z,12.35
2022-11-24T05:35:53.792Z,12.63
2022-11-24T05:38:24.201Z,12.00
2022-11-24T05:40:54.441Z,10.93
2022-11-24T05:43:27.131Z,10.48
2022-11-24T05:45:57.170Z,10.82
2022-11-24T05:48:27.415Z,10.65
2022-11-24T05:50:58.589Z,12.20
2022-11-24T05:53:28.847Z,11.43
2022-11-24T05:55:58.897Z,11.52
2022-11-24T05:58:31.565Z,13.68
2022-11-24T06:01:04.387Z,13.40
2022-11-24T06:03:34.453Z,12.65
2022-11-24T06:06:04.631Z,12.13
2022-11-24T06:08:36.600Z,10.85
2022-11-24T06:11:17.423Z,11.40
2022-11-24T06:13:53.068Z,11.85
2022-11-24T06:16:23.487Z,11.40
2022-11-24T06:18:53.556Z,11.18
2022-11-24T06:21:23.739Z,9.25
2022-11-24T06:23:53.770Z,10.73
2022-11-24T06:26:23.876Z,12.60
2022-11-24T06:28:56.666Z,11.35
2022-11-24T06:31:27.152Z,10.57
2022-11-24T06:33:57.442Z,9.88
2022-11-24T06:36:28.124Z,10.15
2022-11-24T06:39:00.709Z,10.25
2022-11-24T06:41:31.170Z,10.10
2022-11-24T06:44:05.843Z,10.07
2022-11-24T06:46:35.912Z,10.48
2022-11-24T06:49:06.021Z,10.38
2022-11-24T06:51:36.179Z,10.43
2022-11-24T06:54:09.576Z,11.30
2022-11-24T06:56:39.727Z,10.73
2022-11-24T06:59:20.344Z,10.02
2022-11-24T07:01:50.682Z,9.40
2022-11-24T07:04:20.825Z,8.55
2022-11-24T07:06:50.854Z,10.25
2022-11-24T07:09:20.934Z,8.07
2022-11-24T07:11:51.003Z,8.50
2022-11-24T07:14:23.619Z,8.82
2022-11-24T07:16:53.772Z,9.02
2022-11-24T07:19:27.373Z,9.52
2022-11-24T07:21:59.088Z,8.35
2022-11-24T07:24:29.141Z,9.30
2022-11-24T07:26:59.205Z,9.90
2022-11-24T07:29:31.953Z,9.88
2022-11-24T13:59:35.368Z,11.32
2022-11-24T14:02:22.475Z,9.98
2022-11-24T14:04:53.253Z,11.48
2022-11-24T14:07:23.770Z,12.40
2022-11-24T14:09:55.270Z,12.90
2022-11-24T14:12:26.889Z,10.70
2022-11-24T14:15:23.404Z,13.27
2022-11-24T14:17:53.919Z,11.60
2022-11-24T14:20:27.253Z,11.95
2022-11-24T14:22:57.687Z,10.88
2022-11-24T14:25:35.635Z,11.60
2022-11-24T14:28:05.739Z,11.55
2022-11-24T14:30:38.469Z,11.23
2022-11-24T14:33:16.063Z,11.63
2022-11-24T14:35:47.629Z,10.02
2022-11-24T14:38:18.007Z,10.85
2022-11-24T14:40:49.870Z,10.48
2022-11-24T14:43:26.393Z,10.98
2022-11-24T14:46:02.091Z,10.70
2022-11-24T14:48:34.521Z,10.98
2022-11-24T14:51:11.559Z,10.35
2022-11-24T14:53:44.870Z,11.85
2022-11-24T14:56:26.613Z,10.05
2022-11-24T14:58:57.945Z,11.65
2022-11-24T15:01:37.797Z,11.07
2022-11-24T15:04:46.289Z,10.70
2022-11-24T15:07:19.483Z,11.85
2022-11-24T15:09:58.177Z,11.57
2022-11-24T15:12:31.657Z,10.50
2022-11-24T15:15:04.901Z,11.43
2022-11-24T15:17:37.956Z,11.63
2022-11-24T15:20:13.492Z,10.70
2022-11-24T15:22:46.592Z,12.32
2022-11-24T15:25:37.688Z,11.02
2022-11-24T15:28:08.052Z,12.85
2022-11-24T15:30:39.732Z,13.98
2022-11-24T15:33:19.600Z,13.45
2022-11-24T15:35:50.238Z,12.35
2022-11-24T15:38:21.215Z,11.02
2022-11-24T15:40:54.988Z,11.10
2022-11-24T15:43:32.119Z,12.10
2022-11-24T15:46:03.739Z,12.57
2022-11-24T15:48:36.493Z,12.45
2022-11-24T15:51:12.666Z,12.52
2022-11-24T15:53:49.507Z,13.60
2022-11-24T15:56:25.875Z,12.63
2022-11-24T15:58:56.070Z,13.63
2022-11-24T16:01:30.113Z,12.02
2022-11-24T16:06:35.881Z,11.77
2022-11-24T16:09:06.109Z,12.52
2022-11-24T16:11:36.187Z,12.10
2022-11-24T16:14:06.281Z,10.80
2022-11-24T16:16:36.557Z,10.30
2022-11-24T16:19:09.340Z,11.30
2022-11-24T16:21:39.472Z,14.35
2022-11-24T16:24:10.391Z,13.25
2022-11-24T16:26:40.555Z,13.88
2022-11-24T16:29:10.633Z,12.18
2022-11-24T16:31:43.553Z,11.57
2022-11-24T16:34:16.296Z,11.85
2022-11-24T16:36:46.469Z,11.57
2022-11-24T16:39:16.678Z,11.65
2022-11-24T16:41:46.801Z,11.90
2022-11-24T16:44:20.035Z,13.25
2022-11-24T16:46:50.156Z,13.73
2022-11-24T16:49:23.103Z,14.80
2022-11-24T16:51:53.256Z,14.73
2022-11-24T16:54:23.393Z,15.07
2022-11-24T16:56:53.639Z,14.80
2022-11-24T16:59:23.856Z,14.85
2022-11-24T17:01:54.403Z,14.02
2022-11-24T17:04:27.267Z,16.20
2022-11-24T17:06:58.532Z,14.20
2022-11-24T17:09:28.804Z,14.10
2022-11-24T17:11:58.744Z,14.57
2022-11-24T17:14:28.816Z,14.25
2022-11-24T17:16:58.913Z,14.88
2022-11-24T17:19:31.958Z,13.20
2022-11-24T17:22:01.999Z,13.50
2022-11-24T17:24:32.330Z,13.75
2022-11-24T17:27:02.608Z,14.93
2022-11-24T17:29:33.088Z,15.52
2022-11-24T17:32:03.297Z,16.70
2022-11-24T17:34:36.253Z,14.30
2022-11-24T17:37:06.651Z,13.47
2022-11-24T17:39:36.965Z,14.23
2022-11-24T17:42:07.595Z,16.30
2022-11-24T17:44:37.825Z,15.45
2022-11-24T17:47:10.885Z,14.48
2022-11-24T17:49:46.559Z,15.18
2022-11-24T17:52:18.053Z,15.68
2022-11-24T17:54:48.219Z,16.42
2022-11-24T17:57:18.271Z,14.60
2022-11-24T17:59:48.566Z,14.32
2022-11-24T18:02:18.712Z,14.77
2022-11-24T18:04:51.557Z,14.98
2022-11-24T18:07:21.875Z,14.95
2022-11-24T18:09:52.156Z,15.43
2022-11-24T18:12:22.259Z,15.98
2022-11-24T18:14:52.388Z,14.38
2022-11-24T18:17:22.901Z,16.08
2022-11-24T18:19:55.855Z,15.27
2022-11-24T18:22:49.907Z,14.55
2022-11-24T18:25:16.219Z,15.02
2022-11-24T18:27:46.378Z,15.10
2022-11-24T18:30:17.223Z,14.43
2022-11-24T18:32:47.333Z,14.43
2022-11-24T18:35:20.115Z,16.67
2022-11-24T18:37:50.254Z,14.30
2022-11-24T18:40:20.621Z,15.10
2022-11-24T18:42:52.760Z,16.48
2022-11-24T18:45:22.854Z,16.98
2022-11-24T18:47:53.237Z,15.52
2022-11-24T18:50:26.170Z,15.82
2022-11-24T18:52:59.356Z,16.30
2022-11-24T18:55:29.510Z,16.30
2022-11-24T18:58:00.199Z,16.48
2022-11-24T19:00:30.313Z,14.77
2022-11-24T19:03:00.458Z,15.38
2022-11-24T19:05:33.189Z,14.93
2022-11-24T19:08:03.400Z,16.70
2022-11-24T19:10:33.574Z,14.80
2022-11-24T19:13:03.741Z,16.33
2022-11-24T19:15:35.374Z,15.43
2022-11-24T19:18:05.544Z,15.80
2022-11-24T19:20:41.821Z,15.40
2022-11-24T19:23:12.341Z,16.15
2022-11-24T19:25:42.423Z,16.40
2022-11-24T19:28:12.850Z,16.23
2022-11-24T19:30:45.436Z,16.05
2022-11-24T19:33:15.595Z,16.05
2022-11-24T19:35:48.238Z,15.32
2022-11-24T19:38:18.426Z,16.15
2022-11-24T19:40:48.431Z,14.05
2022-11-24T19:43:18.502Z,15.88
2022-11-24T19:45:48.645Z,16.30
2022-11-24T19:48:18.721Z,15.57
2022-11-24T19:50:51.654Z,15.55
2022-11-24T19:53:21.957Z,16.33
2022-11-24T19:55:51.977Z,15.35
2022-11-24T19:58:22.101Z,14.57
2022-11-24T20:00:53.651Z,15.70
2022-11-24T20:03:23.867Z,16.45
2022-11-24T20:06:00.395Z,17.40
2022-11-24T20:08:31.727Z,16.73
2022-11-24T20:11:06.746Z,17.35
2022-11-24T20:13:38.348Z,16.05
2022-11-24T20:16:11.401Z,17.05
2022-11-24T20:18:44.002Z,19.43
2022-11-24T20:21:19.427Z,16.88
2022-11-24T20:23:54.656Z,17.70
2022-11-24T20:26:26.536Z,18.30
2022-11-24T20:28:58.359Z,18.13
2022-11-24T20:31:30.527Z,19.58
2022-11-24T20:34:03.222Z,20.15
2022-11-24T20:36:37.628Z,20.67
2022-11-24T20:39:10.816Z,22.02
2022-11-24T20:41:41.865Z,20.85
2022-11-24T20:44:16.297Z,19.80
2022-11-24T20:46:48.280Z,17.58
2022-11-24T20:49:22.674Z,21.70
2022-11-24T20:51:57.507Z,17.27
2022-11-24T20:54:28.296Z,16.80
2022-11-24T20:56:58.525Z,15.27
2022-11-24T20:59:28.661Z,17.05
2022-11-24T21:01:59.314Z,16.50
2022-11-24T21:04:30.331Z,16.50
2022-11-24T21:07:03.826Z,16.17
2022-11-24T21:09:33.919Z,16.88
2022-11-24T21:12:09.598Z,15.38
2022-11-24T21:14:40.131Z,18.02
2022-11-24T21:17:14.328Z,17.63
2022-11-24T21:19:44.559Z,17.00
2022-11-24T21:22:17.399Z,17.52
2022-11-24T21:24:47.557Z,17.23
2022-11-24T21:27:17.687Z,16.27
2022-11-24T21:29:47.975Z,16.40
2022-11-24T21:32:18.027Z,16.40
2022-11-24T21:34:49.107Z,15.98
2022-11-24T21:37:23.582Z,18.05
2022-11-24T21:39:53.627Z,16.33
2022-11-24T21:42:23.723Z,15.70
2022-11-24T21:44:54.048Z,15.65
2022-11-24T21:47:24.217Z,16.58
2022-11-24T21:49:54.777Z,16.50
2022-11-24T21:52:27.455Z,15.27
2022-11-24T21:54:57.633Z,16.08
2022-11-24T21:57:27.674Z,18.17
2022-11-24T21:59:57.838Z,17.38
2022-11-24T22:02:27.939Z,17.23
2022-11-24T22:04:58.031Z,20.05
2022-11-24T22:07:33.719Z,19.63
2022-11-24T22:10:03.891Z,18.35
2022-11-24T22:12:35.047Z,19.52
2022-11-24T22:15:05.184Z,19.27
2022-11-24T22:17:35.405Z,21.38
2022-11-24T22:20:05.543Z,20.88
2022-11-24T22:22:39.696Z,20.80
2022-11-24T22:25:10.835Z,17.90
2022-11-24T22:27:41.055Z,18.42
2022-11-24T22:30:13.342Z,19.52
2022-11-24T22:32:43.375Z,19.83
2022-11-24T22:35:13.452Z,19.27
2022-11-24T22:37:46.194Z,20.15
2022-11-24T22:40:16.696Z,18.77
2022-11-24T22:42:46.821Z,19.77
2022-11-24T22:45:17.021Z,20.05
2022-11-24T22:47:47.088Z,18.77
2022-11-24T22:50:17.579Z,21.15
2022-11-24T22:52:50.248Z,20.48
2022-11-24T22:55:20.297Z,20.23
2022-11-24T22:57:52.295Z,21.48
2022-11-24T23:00:24.755Z,18.67
2022-11-24T23:02:54.969Z,20.80
2022-11-24T23:05:25.154Z,20.98
2022-11-24T23:07:57.987Z,18.98
2022-11-24T23:10:28.468Z,20.57
2022-11-24T23:12:58.814Z,18.17
2022-11-24T23:15:29.113Z,20.35
2022-11-24T23:17:59.377Z,20.70
2022-11-24T23:20:29.639Z,20.45
2022-11-24T23:23:02.474Z,19.20
2022-11-24T23:25:32.701Z,20.40
2022-11-24T23:28:05.810Z,19.23
2022-11-24T23:30:36.180Z,19.43
2022-11-24T23:33:06.500Z,20.35
2022-11-24T23:35:36.660Z,21.17
2022-11-24T23:38:10.156Z,20.67
2022-11-24T23:40:40.454Z,19.63
2022-11-24T23:43:13.809Z,19.73
2022-11-24T23:45:44.225Z,20.95
2022-11-24T23:48:14.664Z,17.98
2022-11-24T23:50:45.001Z,19.10
2022-11-24T23:53:17.852Z,20.48
2022-11-24T23:55:55.783Z,18.80
2022-11-24T23:58:26.151Z,20.67
